createdAt,value
2022-11-14T00:01:22.057Z,100.00
2022-11-14T00:04:29.379Z,99.72
2022-11-14T00:07:33.106Z,100.00
2022-11-14T00:10:35.724Z,100.00
2022-11-14T00:13:38.383Z,100.00
2022-11-14T00:16:42.352Z,100.00
2022-11-14T00:19:45.527Z,100.00
2022-11-14T00:22:48.130Z,99.84
2022-11-14T00:25:50.879Z,100.00
2022-11-14T00:28:54.842Z,100.00
2022-11-14T00:31:58.795Z,100.00
2022-11-14T00:35:01.414Z,100.00
2022-11-14T00:38:04.064Z,100.00
2022-11-14T00:41:07.014Z,100.00
2022-11-14T00:44:11.397Z,100.00
2022-11-14T00:47:15.371Z,100.00
2022-11-14T00:50:18.245Z,100.00
2022-11-14T00:53:20.884Z,100.00
2022-11-14T00:56:23.532Z,100.00
2022-11-14T00:59:26.192Z,100.00
2022-11-14T01:02:30.154Z,100.00
2022-11-14T01:05:32.779Z,100.00
2022-11-14T01:08:35.893Z,99.77
2022-11-14T01:11:39.345Z,100.00
2022-11-14T01:14:42.028Z,100.00
2022-11-14T01:17:46.136Z,100.00
2022-11-14T01:20:49.863Z,100.00
2022-11-14T01:23:52.516Z,100.00
2022-11-14T01:26:56.019Z,100.00
2022-11-14T01:29:58.635Z,100.00
2022-11-14T01:33:02.845Z,100.00
2022-11-14T01:36:06.747Z,100.00
2022-11-14T01:39:09.357Z,100.00
2022-11-14T01:42:12.040Z,100.00
2022-11-14T01:45:57.337Z,100.00
2022-11-14T01:49:06.075Z,100.00
2022-11-14T01:52:13.091Z,100.00
2022-11-14T01:55:15.735Z,99.29
2022-11-14T01:58:18.393Z,99.36
2022-11-14T02:01:21.292Z,99.31
2022-11-14T02:04:28.645Z,100.00
2022-11-14T02:07:35.330Z,99.58
2022-11-14T02:10:38.013Z,100.00
2022-11-14T02:13:40.894Z,100.00
2022-11-14T02:17:00.792Z,100.00
2022-11-14T02:20:22.463Z,99.98
2022-11-14T02:23:28.960Z,100.00
2022-11-14T02:26:36.524Z,100.00
2022-11-14T02:29:39.559Z,100.00
2022-11-14T02:33:09.424Z,100.00
2022-11-14T02:36:06.834Z,100.00
2022-11-14T02:39:09.456Z,99.78
2022-11-14T02:42:12.068Z,99.63
2022-11-14T02:45:14.914Z,99.66
2022-11-14T02:48:17.530Z,98.84
2022-11-14T02:51:21.875Z,99.46
2022-11-14T02:54:24.507Z,99.53
2022-11-14T02:57:27.139Z,99.53
2022-11-14T03:00:29.847Z,99.47
2022-11-14T03:03:32.605Z,99.68
2022-11-14T03:06:36.582Z,99.67
2022-11-14T03:09:39.222Z,100.00
2022-11-14T03:12:41.901Z,100.00
2022-11-14T03:15:44.544Z,100.00
2022-11-14T03:18:47.219Z,99.26
2022-11-14T03:21:51.189Z,99.22
2022-11-14T03:24:54.091Z,99.03
2022-11-14T03:27:56.728Z,99.26
2022-11-14T03:30:59.623Z,98.96
2022-11-14T03:34:02.282Z,100.00
2022-11-14T03:37:06.271Z,100.00
2022-11-14T03:40:10.213Z,99.56
2022-11-14T03:43:12.873Z,100.00
2022-11-14T03:46:15.494Z,99.83
2022-11-14T03:49:18.140Z,99.75
2022-11-14T03:52:22.140Z,98.96
2022-11-14T03:55:24.796Z,99.72
2022-11-14T03:58:27.815Z,99.94
2022-11-14T04:01:30.776Z,99.66
2022-11-14T04:04:33.480Z,99.39
2022-11-14T04:07:37.491Z,99.78
2022-11-14T04:10:41.273Z,99.98
2022-11-14T04:13:43.908Z,100.00
2022-11-14T04:16:46.508Z,100.00
2022-11-14T04:19:49.145Z,99.77
2022-11-14T04:22:53.092Z,99.15
2022-11-14T04:25:55.726Z,98.89
2022-11-14T04:28:58.363Z,99.45
2022-11-14T04:32:00.974Z,100.00
2022-11-14T04:35:03.721Z,100.00
2022-11-14T04:38:08.084Z,100.00
2022-11-14T04:41:10.762Z,99.58
2022-11-14T04:44:13.432Z,99.35
2022-11-14T04:47:16.064Z,99.71
2022-11-14T04:50:18.702Z,100.00
2022-11-14T04:53:22.653Z,100.00
2022-11-14T04:56:25.509Z,99.03
2022-11-14T04:59:28.242Z,99.22
2022-11-14T05:02:32.012Z,100.00
2022-11-14T05:05:39.251Z,100.00
2022-11-14T05:08:46.496Z,100.00
2022-11-14T05:11:49.128Z,100.00
2022-11-14T05:14:51.745Z,100.00
2022-11-14T05:17:54.366Z,99.36
2022-11-14T05:21:00.023Z,100.00
2022-11-14T05:24:04.119Z,99.45
2022-11-14T05:27:06.849Z,99.86
2022-11-14T05:30:10.852Z,99.83
2022-11-14T05:33:13.459Z,99.78
2022-11-14T05:36:17.484Z,100.00
2022-11-14T05:39:21.474Z,99.71
2022-11-14T05:42:24.105Z,99.44
2022-11-14T05:45:26.745Z,98.93
2022-11-14T05:48:29.972Z,99.13
2022-11-14T05:51:32.792Z,99.67
2022-11-14T05:54:36.802Z,99.61
2022-11-14T05:57:39.420Z,99.13
2022-11-14T06:00:50.757Z,99.06
2022-11-14T06:03:56.231Z,98.91
2022-11-14T06:06:58.943Z,99.18
2022-11-14T06:10:02.980Z,98.73
2022-11-14T06:13:05.662Z,98.15
2022-11-14T06:16:10.845Z,98.50
2022-11-14T06:19:13.460Z,99.84
2022-11-14T06:22:16.078Z,100.00
2022-11-14T06:25:20.147Z,100.00
2022-11-14T06:28:22.742Z,99.55
2022-11-14T06:31:26.328Z,99.99
2022-11-14T06:34:28.974Z,99.45
2022-11-14T06:37:33.864Z,99.54
2022-11-14T06:40:37.938Z,98.24
2022-11-14T06:43:42.418Z,98.32
2022-11-14T06:46:45.049Z,98.86
2022-11-14T06:49:47.707Z,98.79
2022-11-14T06:52:50.371Z,99.54
2022-11-14T06:55:58.891Z,100.00
2022-11-14T06:59:01.489Z,99.67
2022-11-14T07:02:04.148Z,99.43
2022-11-14T07:05:07.344Z,98.56
2022-11-14T07:08:10.148Z,98.89
2022-11-14T07:11:22.640Z,99.96
2022-11-14T07:14:25.316Z,99.63
2022-11-14T07:17:31.188Z,99.11
2022-11-14T07:20:34.089Z,98.57
2022-11-14T07:23:36.863Z,99.20
2022-11-14T07:26:40.857Z,98.93
2022-11-14T07:29:43.460Z,98.35
2022-11-14T07:32:46.125Z,98.67
2022-11-14T07:35:49.478Z,98.27
2022-11-14T07:38:52.294Z,98.52
2022-11-14T07:41:56.260Z,98.08
2022-11-14T07:44:58.864Z,98.69
2022-11-14T07:48:03.201Z,98.66
2022-11-14T07:51:07.637Z,98.68
2022-11-14T07:54:11.854Z,98.09
2022-11-14T07:57:16.227Z,97.78
2022-11-14T08:00:19.299Z,97.45
2022-11-14T08:03:21.896Z,97.93
2022-11-14T08:06:24.561Z,98.59
2022-11-14T08:09:27.166Z,97.91
2022-11-14T08:12:31.154Z,98.30
2022-11-14T08:15:33.803Z,98.62
2022-11-14T08:18:36.472Z,97.77
2022-11-14T08:21:39.140Z,98.70
2022-11-14T08:24:41.741Z,98.74
2022-11-14T08:27:45.712Z,97.98
2022-11-14T08:30:48.312Z,97.97
2022-11-14T08:33:52.535Z,97.68
2022-11-14T08:36:56.625Z,98.47
2022-11-14T08:39:59.252Z,98.95
2022-11-14T08:43:03.868Z,98.37
2022-11-14T08:46:06.765Z,98.14
2022-11-14T08:49:09.591Z,97.50
2022-11-14T08:52:16.675Z,97.76
2022-11-14T08:55:19.945Z,98.76
2022-11-14T08:58:23.920Z,98.24
2022-11-14T09:01:26.600Z,98.45
2022-11-14T09:04:29.335Z,99.32
2022-11-14T09:07:32.131Z,98.98
2022-11-14T09:10:34.851Z,99.24
2022-11-14T09:13:38.853Z,98.96
2022-11-14T09:16:41.479Z,99.27
2022-11-14T09:19:44.110Z,99.87
2022-11-14T09:22:47.006Z,100.00
2022-11-14T09:25:49.650Z,99.34
2022-11-14T09:28:53.628Z,99.58
2022-11-14T09:31:57.093Z,100.00
2022-11-14T09:34:59.731Z,99.81
2022-11-14T09:38:03.239Z,100.00
2022-11-14T09:41:20.849Z,99.48
2022-11-14T09:44:37.142Z,99.30
2022-11-14T09:47:44.104Z,99.20
2022-11-14T09:50:52.650Z,97.83
2022-11-14T09:54:01.629Z,97.84
2022-11-14T09:57:04.352Z,98.65
2022-11-14T10:00:16.523Z,99.40
2022-11-14T10:03:29.077Z,99.63
2022-11-14T10:06:36.480Z,98.89
2022-11-14T10:09:51.495Z,97.99
2022-11-14T10:13:03.155Z,96.98
2022-11-14T10:16:16.205Z,97.41
2022-11-14T10:19:27.431Z,96.52
2022-11-14T10:22:51.106Z,96.51
2022-11-14T10:26:01.746Z,96.15
2022-11-14T10:29:44.137Z,97.49
2022-11-14T10:33:05.911Z,96.50
2022-11-14T10:36:16.302Z,96.73
2022-11-14T10:39:22.914Z,96.82
2022-11-14T10:42:35.588Z,96.62
2022-11-14T10:45:43.231Z,96.85
2022-11-14T10:48:50.382Z,96.66
2022-11-14T10:51:55.868Z,95.88
2022-11-14T10:55:06.246Z,94.23
2022-11-14T10:58:11.820Z,93.02
2022-11-14T11:01:36.277Z,93.54
2022-11-14T11:04:42.406Z,93.36
2022-11-14T11:08:28.123Z,92.69
2022-11-14T11:11:32.957Z,90.73
2022-11-14T11:14:36.133Z,88.60
2022-11-14T11:17:42.929Z,84.90
2022-11-14T11:21:03.672Z,85.76
2022-11-14T11:24:07.196Z,85.37
2022-11-14T11:27:23.789Z,85.17
2022-11-14T11:30:27.352Z,87.04
2022-11-14T11:33:32.049Z,87.29
2022-11-14T11:36:41.734Z,86.93
2022-11-14T11:39:49.923Z,88.84
2022-11-14T11:43:37.196Z,88.12
2022-11-14T11:46:30.204Z,88.02
2022-11-14T11:49:47.431Z,87.43
2022-11-14T11:53:03.720Z,88.50
2022-11-14T11:56:11.276Z,88.45
2022-11-14T11:59:27.975Z,89.22
2022-11-14T12:02:31.267Z,88.71
2022-11-14T12:05:43.347Z,88.73
2022-11-14T12:09:00.701Z,87.96
2022-11-14T12:12:07.968Z,88.24
2022-11-14T12:15:24.986Z,88.17
2022-11-14T12:18:44.602Z,87.48
2022-11-14T12:22:12.882Z,86.21
2022-11-14T12:25:35.895Z,87.15
2022-11-14T12:29:05.537Z,86.79
2022-11-14T12:32:14.252Z,85.41
2022-11-14T12:35:22.106Z,86.40
2022-11-14T12:38:25.460Z,84.81
2022-11-14T12:41:32.806Z,83.32
2022-11-14T12:44:38.411Z,81.75
2022-11-14T12:48:23.032Z,80.75
2022-11-14T12:51:51.328Z,76.77
2022-11-14T12:54:53.966Z,75.07
2022-11-14T12:58:04.978Z,71.87
2022-11-14T13:01:23.354Z,66.88
2022-11-14T13:04:36.726Z,62.30
2022-11-14T13:07:52.167Z,60.22
2022-11-14T13:10:54.807Z,60.03
2022-11-14T13:14:20.563Z,59.59
2022-11-14T13:17:44.293Z,60.35
2022-11-14T13:21:20.048Z,61.23
2022-11-14T13:24:22.727Z,62.58
2022-11-14T13:27:52.292Z,65.20
2022-11-14T13:31:07.277Z,68.32
2022-11-14T13:34:41.086Z,69.49
2022-11-14T13:38:08.222Z,69.87
2022-11-14T13:41:41.352Z,71.01
2022-11-14T13:45:22.011Z,70.78
2022-11-14T13:48:47.320Z,69.81
2022-11-14T13:51:53.802Z,70.52
2022-11-14T13:54:58.843Z,72.08
2022-11-14T13:58:17.315Z,72.44
2022-11-14T14:01:38.252Z,73.23
2022-11-14T14:04:53.806Z,74.21
2022-11-14T14:08:12.796Z,76.05
2022-11-14T14:11:35.072Z,76.70
2022-11-14T14:14:56.367Z,77.02
2022-11-14T14:18:08.584Z,79.36
2022-11-14T14:21:19.321Z,79.16
2022-11-14T14:24:41.653Z,81.40
2022-11-14T14:27:59.383Z,82.24
2022-11-14T14:31:03.512Z,84.05
2022-11-14T14:34:22.579Z,84.48
2022-11-14T14:37:27.241Z,84.83
2022-11-14T14:40:33.784Z,85.68
2022-11-14T14:43:38.017Z,86.30
2022-11-14T14:46:40.687Z,86.86
2022-11-14T14:49:44.362Z,87.29
2022-11-14T14:52:46.979Z,88.29
2022-11-14T14:55:54.800Z,89.08
2022-11-14T14:58:58.768Z,88.10
2022-11-14T15:02:01.524Z,89.09
2022-11-14T15:05:06.278Z,89.23
2022-11-14T15:08:14.804Z,89.97
2022-11-14T15:11:17.556Z,90.26
2022-11-14T15:14:24.569Z,90.02
2022-11-14T15:17:31.603Z,90.56
2022-11-14T15:20:37.248Z,91.99
2022-11-14T15:23:40.126Z,91.29
2022-11-14T15:26:44.933Z,91.46
2022-11-14T15:29:51.240Z,91.64
2022-11-14T15:32:55.662Z,91.69
2022-11-14T15:36:10.738Z,91.64
2022-11-14T15:39:27.795Z,91.88
2022-11-14T15:42:30.915Z,92.29
2022-11-14T15:45:41.878Z,92.72
2022-11-14T15:48:44.602Z,93.28
2022-11-14T15:51:50.534Z,93.73
2022-11-14T15:54:53.166Z,93.72
2022-11-14T15:58:21.515Z,94.15
2022-11-14T16:01:25.793Z,93.68
2022-11-14T16:04:32.000Z,94.29
2022-11-14T16:07:34.711Z,94.24
2022-11-14T16:10:37.663Z,93.80
2022-11-14T16:13:40.256Z,94.08
2022-11-14T16:16:44.232Z,94.28
2022-11-14T16:19:46.942Z,94.47
2022-11-14T16:22:50.806Z,94.48
2022-11-14T16:25:53.592Z,94.92
2022-11-14T16:28:56.973Z,95.24
2022-11-14T16:32:00.982Z,94.62
2022-11-14T16:35:03.710Z,95.05
2022-11-14T16:38:06.329Z,94.87
2022-11-14T16:41:09.539Z,95.29
2022-11-14T16:44:17.174Z,95.10
2022-11-14T16:47:21.212Z,95.68
2022-11-14T16:50:23.843Z,95.72
2022-11-14T16:53:26.453Z,95.99
2022-11-14T16:56:30.963Z,95.72
2022-11-14T16:59:33.668Z,96.71
2022-11-14T17:02:37.779Z,96.44
2022-11-14T17:05:44.223Z,96.10
2022-11-14T17:08:46.861Z,95.81
2022-11-14T17:11:49.511Z,96.14
2022-11-14T17:14:52.176Z,96.43
2022-11-14T17:17:57.358Z,96.76
2022-11-14T17:21:00.030Z,96.74
2022-11-14T17:24:02.754Z,97.11
2022-11-14T17:27:05.551Z,97.19
2022-11-14T17:30:12.119Z,96.70
2022-11-14T17:33:16.066Z,96.31
2022-11-14T17:36:18.867Z,97.04
2022-11-14T17:39:21.449Z,96.71
2022-11-14T17:42:24.138Z,96.36
2022-11-14T17:45:26.762Z,96.31
2022-11-14T17:48:31.176Z,96.44
2022-11-14T17:51:33.987Z,96.50
2022-11-14T17:54:37.677Z,96.86
2022-11-14T17:57:40.356Z,96.68
2022-11-14T18:00:42.971Z,96.68
2022-11-14T18:03:47.168Z,97.82
2022-11-14T18:06:49.851Z,97.64
2022-11-14T18:09:52.563Z,96.59
2022-11-14T18:12:55.203Z,97.55
2022-11-14T18:16:02.035Z,97.91
2022-11-14T18:19:06.273Z,97.74
2022-11-14T18:22:08.937Z,97.96
2022-11-14T18:25:11.545Z,97.71
2022-11-14T18:28:14.183Z,97.90
2022-11-14T18:31:16.773Z,97.70
2022-11-14T18:34:20.739Z,97.91
2022-11-14T18:37:23.425Z,97.95
2022-11-14T18:40:26.087Z,98.64
2022-11-14T18:43:31.992Z,98.21
2022-11-14T18:46:37.521Z,98.85
2022-11-14T18:49:41.727Z,98.92
2022-11-14T18:52:44.361Z,98.41
2022-11-14T18:55:47.509Z,97.90
2022-11-14T18:58:54.051Z,98.37
2022-11-14T19:01:58.197Z,99.05
2022-11-14T19:05:02.252Z,99.29
2022-11-14T19:08:07.157Z,98.95
2022-11-14T19:11:32.585Z,98.93
2022-11-14T19:14:35.243Z,99.58
2022-11-14T19:17:37.918Z,100.00
2022-11-14T19:20:41.880Z,100.00
2022-11-14T19:23:44.516Z,99.50
2022-11-14T19:26:47.159Z,99.56
2022-11-14T19:29:50.535Z,99.16
2022-11-14T19:32:53.143Z,98.28
2022-11-14T19:35:57.227Z,98.83
2022-11-14T19:39:01.643Z,98.73
2022-11-14T19:42:04.344Z,98.21
2022-11-14T19:45:08.023Z,98.60
2022-11-14T19:48:11.743Z,98.53
2022-11-14T19:51:17.875Z,99.53
2022-11-14T19:54:20.821Z,100.00
2022-11-14T19:57:23.441Z,99.84
2022-11-14T20:00:26.360Z,100.00
2022-11-14T20:03:29.636Z,100.00
2022-11-14T20:06:35.622Z,99.76
2022-11-14T20:09:38.275Z,100.00
2022-11-14T20:12:40.996Z,99.98
2022-11-14T20:15:43.676Z,99.47
2022-11-14T20:18:50.472Z,99.19
2022-11-14T20:21:57.320Z,99.40
2022-11-14T20:25:00.019Z,99.10
2022-11-14T20:28:02.783Z,98.97
2022-11-14T20:31:07.194Z,98.95
2022-11-14T20:34:11.128Z,98.90
2022-11-14T20:37:15.261Z,98.32
2022-11-14T20:40:18.135Z,98.44
2022-11-14T20:43:20.834Z,98.80
2022-11-14T20:46:23.516Z,98.92
2022-11-14T20:49:26.211Z,98.45
2022-11-14T20:52:30.856Z,98.87
2022-11-14T20:55:33.549Z,98.86
2022-11-14T20:58:36.285Z,98.46
2022-11-14T21:01:43.374Z,99.32
2022-11-14T21:04:46.686Z,99.43
2022-11-14T21:07:50.641Z,99.01
2022-11-14T21:11:02.086Z,99.26
2022-11-14T21:14:05.930Z,99.06
2022-11-14T21:17:08.525Z,98.55
2022-11-14T21:20:11.751Z,99.10
2022-11-14T21:23:15.800Z,99.10
2022-11-14T21:26:21.237Z,98.63
2022-11-14T21:29:23.956Z,99.35
2022-11-14T21:32:26.553Z,98.93
2022-11-14T21:35:32.231Z,99.51
2022-11-14T21:38:36.209Z,98.98
2022-11-14T21:41:38.828Z,99.57
2022-11-14T21:44:41.483Z,99.24
2022-11-14T21:47:44.144Z,98.94
2022-11-14T21:50:46.786Z,98.96
2022-11-14T21:53:53.875Z,99.86
2022-11-14T21:56:56.524Z,99.98
2022-11-14T21:59:59.152Z,99.46
2022-11-14T22:03:19.246Z,99.41
2022-11-14T22:06:22.188Z,100.00
2022-11-14T22:09:27.330Z,99.73
2022-11-14T22:12:29.961Z,100.00
2022-11-14T22:15:32.588Z,99.64
2022-11-14T22:18:35.286Z,99.39
2022-11-14T22:21:37.936Z,99.35
2022-11-14T22:24:41.910Z,99.36
2022-11-14T22:27:44.551Z,100.00
2022-11-14T22:30:47.165Z,99.98
2022-11-14T22:33:51.651Z,100.00
2022-11-14T22:36:54.296Z,99.98
2022-11-14T22:39:58.251Z,99.86
2022-11-14T22:43:01.153Z,99.57
2022-11-14T22:46:04.041Z,99.27
2022-11-14T22:49:06.676Z,99.80
2022-11-14T22:52:09.285Z,99.30
2022-11-14T22:55:17.832Z,99.27
2022-11-14T22:58:20.725Z,98.78
2022-11-14T23:01:26.142Z,98.65
2022-11-14T23:04:29.031Z,99.02
2022-11-14T23:07:31.683Z,98.98
2022-11-14T23:10:36.103Z,98.93
2022-11-14T23:13:39.388Z,99.37
2022-11-14T23:16:42.010Z,100.00
2022-11-14T23:19:44.654Z,100.00
2022-11-14T23:22:47.342Z,100.00
2022-11-14T23:25:51.356Z,99.21
2022-11-14T23:28:55.240Z,99.30
2022-11-14T23:31:57.887Z,99.31
2022-11-14T23:35:00.491Z,99.84
2022-11-14T23:38:04.732Z,99.05
2022-11-14T23:41:10.643Z,99.20
2022-11-14T23:44:13.246Z,98.98
2022-11-14T23:47:15.880Z,99.34
2022-11-14T23:50:18.715Z,99.50
2022-11-14T23:53:22.185Z,98.99
2022-11-14T23:56:26.153Z,99.02
2022-11-14T23:59:28.774Z,99.85
